Time;durP1;ratioP1;P1;durP2;ratioP2;P2;SDS_P1;SDS_P2;PMS_P1;PMS_P2;Temp;Humidity;BMP_temperature;BMP_pressure;BME280_temperature;BME280_humidity;BME280_pressure;Samples;Min_cycle;Max_cycle;Signal;HPM_P1;HPM_P2
2022/12/14 00:02:36;;;;;;;99.37;41.57;;;;;;;-9.57;77.95;99851.69;2095095;84;21077;-79
2022/12/14 00:05:37;;;;;;;89.20;39.90;;;;;;;-9.61;77.84;99851.40;2094904;83;21021;-78
2022/12/14 00:08:39;;;;;;;97.80;40.80;;;;;;;-9.69;78.01;99842.64;2102422;84;21081;-79
2022/12/14 00:11:40;;;;;;;92.50;38.13;;;;;;;-9.72;77.92;99841.45;2095405;84;21092;-78
2022/12/14 00:14:41;;;;;;;83.37;36.13;;;;;;;-9.66;77.93;99831.44;2098644;84;20994;-78
2022/12/14 00:17:42;;;;;;;80.77;35.27;;;;;;;-9.72;77.93;99829.89;2098553;83;21009;-78
2022/12/14 00:20:43;;;;;;;86.07;35.13;;;;;;;-9.85;77.80;99826.00;2070514;85;21090;-79
2022/12/14 00:23:47;;;;;;;86.83;37.10;;;;;;;-10.02;77.56;99814.53;2103431;83;21031;-79
2022/12/14 00:26:51;;;;;;;82.30;36.00;;;;;;;-10.19;77.68;99818.87;2104339;84;21721;-78
2022/12/14 00:29:52;;;;;;;91.87;37.03;;;;;;;-10.24;77.96;99814.30;2105072;83;20988;-78
2022/12/14 00:32:54;;;;;;;89.00;34.27;;;;;;;-10.35;78.11;99792.44;2104387;84;21065;-78
2022/12/14 00:35:55;;;;;;;89.43;36.07;;;;;;;-10.35;78.11;99792.44;2107686;84;22328;-78
2022/12/14 00:38:56;;;;;;;93.43;37.17;;;;;;;-10.26;78.09;99816.06;2106553;84;21008;-79
2022/12/14 00:41:57;;;;;;;88.47;35.50;;;;;;;-10.41;78.06;99790.44;2104439;84;21045;-78
2022/12/14 00:44:59;;;;;;;108.30;45.10;;;;;;;-10.33;77.92;99811.17;2108608;84;21065;-79
2022/12/14 00:48:01;;;;;;;90.60;38.30;;;;;;;-10.39;77.93;99813.05;2077194;84;21065;-78
2022/12/14 00:51:02;;;;;;;91.13;38.90;;;;;;;-10.43;77.96;99811.88;2105349;84;21002;-78
2022/12/14 00:54:04;;;;;;;91.50;36.80;;;;;;;-10.43;77.88;99808.87;2075392;84;21339;-78
2022/12/14 00:57:06;;;;;;;89.50;35.90;;;;;;;-10.41;77.92;99810.96;2108655;84;21364;-78
2022/12/14 01:00:12;;;;;;;79.63;35.13;;;;;;;-10.43;77.65;99810.16;2109273;84;21018;-79
2022/12/14 01:03:13;;;;;;;86.87;34.60;;;;;;;-10.53;77.43;99813.01;2103517;84;21075;-78
2022/12/14 01:06:21;;;;;;;90.80;36.60;;;;;;;-10.65;77.33;99798.80;2100745;84;21096;-78
2022/12/14 01:09:25;;;;;;;83.10;35.63;;;;;;;-10.78;77.28;99804.72;2103195;83;21587;-78
2022/12/14 01:12:26;;;;;;;89.50;35.37;;;;;;;-10.92;77.51;99805.52;2102806;84;21476;-79
2022/12/14 01:15:27;;;;;;;81.63;31.47;;;;;;;-10.97;77.83;99805.63;2080208;84;21447;-78
2022/12/14 01:18:28;;;;;;;84.10;33.70;;;;;;;-10.96;78.01;99810.30;2105671;83;21042;-78
2022/12/14 01:21:30;;;;;;;76.43;32.27;;;;;;;-10.97;77.82;99800.50;2106716;84;20981;-78
2022/12/14 01:24:31;;;;;;;78.20;31.47;;;;;;;-11.09;77.51;99802.11;2103129;83;21089;-78
2022/12/14 01:27:32;;;;;;;80.87;31.60;;;;;;;-11.20;77.52;99802.37;2104573;84;21088;-78
2022/12/14 01:30:33;;;;;;;68.40;31.23;;;;;;;-11.25;77.64;99785.42;2109843;84;21056;-78
2022/12/14 01:33:35;;;;;;;79.67;31.47;;;;;;;-11.29;77.66;99788.06;2101307;84;21041;-78
2022/12/14 01:36:38;;;;;;;79.67;31.73;;;;;;;-11.30;77.86;99794.05;2105575;84;21035;-78
2022/12/14 01:39:39;;;;;;;81.23;31.47;;;;;;;-11.29;77.94;99788.06;2106773;84;21555;-78
2022/12/14 01:42:40;;;;;;;78.40;32.03;;;;;;;-11.31;77.87;99784.70;2104117;83;21014;-78
2022/12/14 01:45:42;;;;;;;76.27;32.03;;;;;;;-11.32;77.89;99789.84;2104569;84;21059;-78
2022/12/14 01:48:45;;;;;;;76.67;32.43;;;;;;;-11.32;77.89;99788.56;2106737;84;21096;-78
2022/12/14 01:51:54;;;;;;;72.90;32.47;;;;;;;-11.30;78.02;99781.69;2107351;83;21033;-78
2022/12/14 01:55:16;;;;;;;67.85;31.35;;;;;;;-11.26;78.03;99778.60;2108305;84;21022;-78
2022/12/14 01:58:24;;;;;;;72.33;30.53;;;;;;;-11.23;77.85;99774.27;2105994;84;21040;-78
2022/12/14 02:01:25;;;;;;;71.03;31.00;;;;;;;-11.34;77.48;99773.25;2108461;84;21058;-78
2022/12/14 02:04:26;;;;;;;72.93;30.27;;;;;;;-11.52;77.32;99773.68;2103937;84;21038;-78
2022/12/14 02:07:29;;;;;;;66.83;28.57;;;;;;;-11.67;77.50;99766.38;2109703;83;21005;-77
2022/12/14 02:10:31;;;;;;;78.67;31.27;;;;;;;-11.80;77.66;99764.09;2073024;84;21031;-78
2022/12/14 02:13:37;;;;;;;70.77;30.90;;;;;;;-11.90;77.76;99767.78;2118505;83;21688;-78
2022/12/14 02:16:40;;;;;;;77.13;31.43;;;;;;;-11.92;77.92;99766.97;2116465;83;21084;-78
2022/12/14 02:19:42;;;;;;;73.57;31.00;;;;;;;-11.90;78.10;99762.66;2116972;83;21568;-77
2022/12/14 02:23:01;;;;;;;84.40;32.20;;;;;;;-11.84;78.19;99755.25;2119328;83;21517;-78
2022/12/14 02:26:23;;;;;;;77.13;33.63;;;;;;;-11.80;78.23;99760.25;2116043;83;21096;-78
2022/12/14 02:29:58;;;;;;;76.60;33.23;;;;;;;-11.71;78.36;99751.55;2119060;83;21078;-78
2022/12/14 02:33:32;;;;;;;69.70;30.57;;;;;;;-11.63;78.11;99749.61;2111870;83;21062;-78
2022/12/14 02:36:53;;;;;;;77.53;31.90;;;;;;;-11.58;77.99;99740.55;2115089;83;21495;-78
2022/12/14 02:40:31;;;;;;;80.03;32.83;;;;;;;-11.52;78.07;99754.48;2119663;83;21022;-78
2022/12/14 02:43:40;;;;;;;84.77;36.37;;;;;;;-11.38;78.23;99760.55;2117288;83;21571;-78
2022/12/14 02:46:53;;;;;;;86.53;34.95;;;;;;;-11.32;78.04;99751.01;2120873;83;21070;-78
2022/12/14 02:50:08;;;;;;;81.80;34.13;;;;;;;-11.30;78.03;99749.22;2116764;83;21589;-78
2022/12/14 02:53:54;;;;;;;81.23;33.63;;;;;;;-11.41;77.72;99747.38;2116843;83;21006;-78
2022/12/14 02:57:22;;;;;;;77.73;31.43;;;;;;;-11.55;77.74;99745.15;2115403;83;21050;-78
2022/12/14 03:00:24;;;;;;;78.33;32.03;;;;;;;-11.43;77.88;99745.73;2120297;83;21041;-78
2022/12/14 03:03:25;;;;;;;76.87;32.70;;;;;;;-11.33;77.78;99740.34;2115068;83;21054;-78
2022/12/14 03:06:29;;;;;;;80.37;34.90;;;;;;;-11.23;77.52;99742.66;2118264;83;21009;-78
2022/12/14 03:09:31;;;;;;;72.23;32.03;;;;;;;-11.25;77.33;99748.28;2117718;82;21105;-77
2022/12/14 03:12:36;;;;;;;84.67;34.87;;;;;;;-11.30;77.00;99741.98;2126557;82;21432;-77
2022/12/14 03:15:41;;;;;;;88.77;36.37;;;;;;;-11.25;77.57;99743.16;2126562;82;21022;-77
2022/12/14 03:19:08;;;;;;;65.30;30.10;;;;;;;-11.16;77.37;99730.11;2128772;82;21078;-77
2022/12/14 03:22:24;;;;;;;92.50;36.33;;;;;;;-11.05;77.29;99738.35;2096538;83;21066;-77
2022/12/14 03:25:39;;;;;;;89.50;35.80;;;;;;;-11.00;77.06;99733.95;2114743;82;21017;-77
2022/12/14 03:28:45;;;;;;;81.40;31.43;;;;;;;-10.99;77.06;99730.49;2123410;82;21057;-78
2022/12/14 03:32:01;;;;;;;91.27;36.17;;;;;;;-11.02;77.12;99727.19;2122488;82;21033;-77
2022/12/14 03:35:20;;;;;;;89.67;37.50;;;;;;;-11.10;77.18;99728.66;2118758;82;21108;-77
2022/12/14 03:38:32;;;;;;;82.53;34.97;;;;;;;-11.07;77.30;99725.56;2128110;82;21002;-78
2022/12/14 03:41:42;;;;;;;82.40;35.13;;;;;;;-10.94;77.10;99725.26;2122976;83;21135;-78
2022/12/14 03:44:55;;;;;;;88.25;33.85;;;;;;;-11.11;76.35;99730.83;2121208;82;21410;-76
2022/12/14 03:48:23;;;;;;;93.47;36.47;;;;;;;-11.16;76.44;99732.67;2118140;82;21073;-76
2022/12/14 03:51:38;;;;;;;93.03;37.60;;;;;;;-11.20;76.81;99724.67;2128054;82;21552;-76
2022/12/14 03:54:54;;;;;;;83.13;34.23;;;;;;;-11.29;77.05;99718.91;2120660;83;21072;-76
2022/12/14 03:58:13;;;;;;;82.73;35.63;;;;;;;-11.39;77.05;99717.90;2129220;82;21100;-76
2022/12/14 04:01:32;;;;;;;100.93;39.23;;;;;;;-11.46;77.16;99713.35;2118862;83;21150;-77
2022/12/14 04:05:07;;;;;;;97.77;37.83;;;;;;;-11.39;77.25;99708.48;2124139;82;21107;-77
2022/12/14 04:08:19;;;;;;;101.90;39.37;;;;;;;-11.39;77.10;99696.97;2121049;83;21102;-76
2022/12/14 04:22:07;;;;;;;103.03;38.20;;;;;;;-11.63;77.54;99688.17;2113040;83;21428;-76
2022/12/14 04:32:18;;;;;;;99.80;38.97;;;;;;;-11.62;78.29;99671.12;2092336;84;21040;-77
2022/12/14 04:35:36;;;;;;;107.60;37.77;;;;;;;-11.58;78.29;99668.86;2089728;84;21042;-77
2022/12/14 04:38:39;;;;;;;97.77;39.70;;;;;;;-11.56;78.44;99661.55;2082453;84;21033;-77
2022/12/14 04:41:44;;;;;;;94.73;38.60;;;;;;;-11.49;78.76;99663.95;2090460;84;21010;-77
2022/12/14 04:44:57;;;;;;;103.87;40.57;;;;;;;-11.47;78.71;99657.07;2071823;84;21082;-77
2022/12/14 04:48:21;;;;;;;109.40;42.37;;;;;;;-11.41;78.80;99661.58;2079491;85;21099;-77
2022/12/14 04:51:48;;;;;;;90.17;38.47;;;;;;;-11.32;78.83;99660.08;2111857;83;21094;-76
2022/12/14 04:55:07;;;;;;;103.73;39.07;;;;;;;-11.24;79.03;99662.86;2076679;84;21731;-77
2022/12/14 04:58:18;;;;;;;100.82;38.90;;;;;;;-11.17;79.00;99654.97;2071977;84;21011;-77
2022/12/14 05:01:53;;;;;;;95.20;39.13;;;;;;;-11.05;79.08;99665.33;2073679;84;21115;-77
2022/12/14 05:05:18;;;;;;;89.80;37.93;;;;;;;-10.90;79.12;99654.62;2094002;84;21062;-77
2022/12/14 05:08:59;;;;;;;101.80;40.33;;;;;;;-10.83;78.85;99655.31;2101410;83;21057;-77
2022/12/14 05:12:11;;;;;;;105.65;42.58;;;;;;;-10.84;79.04;99648.07;2079201;84;21014;-77
2022/12/14 05:15:20;;;;;;;92.40;38.77;;;;;;;-10.85;79.15;99642.52;2107734;83;22347;-79
2022/12/14 05:18:22;;;;;;;98.43;38.97;;;;;;;-10.84;79.48;99641.66;2077287;84;21141;-76
2022/12/14 05:24:45;;;;;;;98.07;39.37;;;;;;;-10.79;79.47;99640.23;2110799;83;21110;-78
2022/12/14 05:27:46;;;;;;;97.80;40.13;;;;;;;-10.77;79.44;99634.63;2089250;83;21030;-77
2022/12/14 05:30:48;;;;;;;91.17;38.30;;;;;;;-10.74;79.45;99631.13;2110846;83;21564;-78
2022/12/14 05:33:48;;;;;;;94.17;39.40;;;;;;;-10.72;79.41;99625.53;2107822;83;21144;-78
2022/12/14 05:36:50;;;;;;;99.27;38.20;;;;;;;-10.74;79.36;99633.25;2114232;83;21058;-78
2022/12/14 05:39:51;;;;;;;94.47;40.03;;;;;;;-10.76;79.41;99626.48;2115874;83;21039;-78
2022/12/14 05:43:04;;;;;;;105.43;41.10;;;;;;;-10.77;79.44;99619.69;2114209;83;21061;-75
2022/12/14 05:46:09;;;;;;;90.60;33.50;;;;;;;-10.78;79.42;99620.55;2108146;83;21046;-77
2022/12/14 05:49:11;;;;;;;99.30;42.57;;;;;;;-10.79;79.38;99621.45;2111033;83;21133;-74
2022/12/14 05:52:20;;;;;;;85.20;37.33;;;;;;;-10.80;79.32;99622.34;2112996;83;21065;-73
2022/12/14 05:55:23;;;;;;;99.37;41.40;;;;;;;-10.79;79.28;99621.45;2112165;83;21040;-74
2022/12/14 05:58:24;;;;;;;107.17;39.77;;;;;;;-10.84;79.13;99619.01;2088078;84;21077;-74
2022/12/14 06:01:30;;;;;;;99.23;39.90;;;;;;;-10.86;79.13;99613.11;2085348;84;21120;-75
2022/12/14 06:04:32;;;;;;;107.63;42.97;;;;;;;-10.82;79.25;99607.00;2079098;84;21008;-77
2022/12/14 06:07:33;;;;;;;100.80;39.93;;;;;;;-10.68;79.37;99606.59;2102726;83;21109;-75
2022/12/14 06:10:37;;;;;;;97.67;38.83;;;;;;;-10.55;79.32;99612.20;2103084;83;21572;-77
2022/12/14 06:13:40;;;;;;;102.20;40.93;;;;;;;-10.49;79.23;99605.59;2077171;84;21037;-79
2022/12/14 06:16:46;;;;;;;99.60;40.70;;;;;;;-10.45;79.17;99605.44;2106812;84;22305;-77
2022/12/14 06:19:47;;;;;;;97.13;40.17;;;;;;;-10.51;78.97;99612.04;2112140;83;21109;-79
2022/12/14 06:22:48;;;;;;;98.87;40.30;;;;;;;-10.53;79.02;99617.69;2077265;84;21031;-76
2022/12/14 06:25:54;;;;;;;106.80;41.63;;;;;;;-10.63;78.84;99612.42;2101572;83;21068;-76
2022/12/14 06:28:56;;;;;;;91.80;40.20;;;;;;;-10.70;78.75;99604.09;2074355;85;21018;-76
2022/12/14 06:31:57;;;;;;;98.87;42.33;;;;;;;-10.80;78.46;99606.52;2102916;84;21030;-75
2022/12/14 06:34:58;;;;;;;111.30;45.37;;;;;;;-10.84;78.75;99594.24;2104459;83;21069;-76
2022/12/14 06:37:59;;;;;;;93.37;38.93;;;;;;;-10.77;78.80;99600.47;2101936;84;21024;-77
2022/12/14 06:41:00;;;;;;;101.67;38.70;;;;;;;-10.80;78.67;99594.98;2111272;84;21476;-78
2022/12/14 06:44:07;;;;;;;95.77;38.90;;;;;;;-10.85;78.69;99588.70;2101962;83;21022;-78
2022/12/14 06:47:08;;;;;;;102.80;40.30;;;;;;;-10.90;78.77;99587.98;2072712;84;21048;-78
2022/12/14 06:50:09;;;;;;;94.47;40.37;;;;;;;-10.95;78.65;99588.59;2079793;84;21016;-78
2022/12/14 06:53:12;;;;;;;104.20;42.50;;;;;;;-11.04;78.62;99586.28;2099908;84;21064;-78
2022/12/14 06:56:16;;;;;;;81.57;32.90;;;;;;;-11.10;78.78;99586.45;2082822;84;21059;-78
2022/12/14 06:59:17;;;;;;;101.07;40.83;;;;;;;-11.13;78.75;99591.23;2108758;84;21029;-78
2022/12/14 07:02:19;;;;;;;96.33;39.60;;;;;;;-11.17;78.87;99592.66;2105801;84;21072;-78
2022/12/14 07:05:20;;;;;;;107.60;42.13;;;;;;;-11.19;78.95;99590.57;2104617;83;21475;-78
2022/12/14 07:08:21;;;;;;;106.73;42.77;;;;;;;-11.17;79.09;99584.97;2120573;83;21513;-77
2022/12/14 07:11:23;;;;;;;103.60;42.80;;;;;;;-11.16;79.14;99580.23;2111001;83;21028;-77
2022/12/14 07:14:25;;;;;;;101.07;41.13;;;;;;;-11.13;79.20;99586.55;2112685;83;21126;-77
2022/12/14 07:17:26;;;;;;;100.57;41.00;;;;;;;-11.09;79.17;99584.31;2118236;83;21038;-78
2022/12/14 07:20:27;;;;;;;99.53;40.80;;;;;;;-11.05;79.13;99579.48;2113573;83;20979;-77
2022/12/14 07:23:31;;;;;;;99.60;43.53;;;;;;;-11.06;79.02;99587.62;2115329;83;21058;-81
2022/12/14 07:26:32;;;;;;;93.60;41.07;;;;;;;-11.08;78.97;99583.42;2108826;83;21065;-79
2022/12/14 07:29:33;;;;;;;112.60;44.03;;;;;;;-11.09;79.04;99577.91;2108722;83;20951;-79
2022/12/14 07:32:34;;;;;;;107.87;40.97;;;;;;;-11.07;79.14;99572.27;2080114;83;21041;-79
2022/12/14 07:35:36;;;;;;;99.00;40.43;;;;;;;-11.06;79.21;99571.41;2107747;83;21019;-79
2022/12/14 07:38:39;;;;;;;108.07;45.73;;;;;;;-11.00;79.33;99567.37;2115166;83;20982;-79
2022/12/14 07:41:40;;;;;;;97.77;39.33;;;;;;;-10.93;79.35;99562.45;2080327;83;21434;-81
2022/12/14 07:44:42;;;;;;;107.67;38.33;;;;;;;-10.90;79.41;99563.64;2115815;83;21058;-78
2022/12/14 07:47:43;;;;;;;98.17;37.30;;;;;;;-10.86;79.49;99565.24;2109002;83;21057;-79
2022/12/14 07:50:44;;;;;;;103.23;44.47;;;;;;;-10.77;79.61;99551.76;2120056;83;21011;-78
2022/12/14 07:53:49;;;;;;;106.63;42.43;;;;;;;-10.72;79.62;99564.00;2104444;83;21467;-79
2022/12/14 07:56:50;;;;;;;102.87;41.13;;;;;;;-10.65;79.69;99562.45;2112297;83;20992;-78
2022/12/14 07:59:52;;;;;;;106.07;42.93;;;;;;;-10.54;79.75;99564.69;2114534;83;21551;-78
2022/12/14 08:02:54;;;;;;;103.63;41.33;;;;;;;-10.49;79.67;99564.56;2083162;85;21073;-78
2022/12/14 08:05:57;;;;;;;101.13;41.00;;;;;;;-10.43;79.73;99560.52;2113763;83;21089;-79
2022/12/14 08:08:59;;;;;;;108.47;41.10;;;;;;;-10.33;79.75;99554.62;2109670;83;21036;-79
2022/12/14 08:12:01;;;;;;;98.43;42.83;;;;;;;-10.19;79.81;99550.72;2116181;83;21129;-78
2022/12/14 08:15:02;;;;;;;123.17;49.03;;;;;;;-10.06;79.64;99551.59;2117393;83;21084;-79
2022/12/14 08:18:04;;;;;;;109.17;42.70;;;;;;;-9.84;79.84;99558.13;2108630;83;21069;-78
2022/12/14 08:21:07;;;;;;;101.40;43.43;;;;;;;-9.41;79.46;99551.47;2089425;83;20940;-82
2022/12/14 08:24:13;;;;;;;97.63;41.13;;;;;;;-9.41;79.46;99551.47;2113731;83;21039;-79
2022/12/14 08:27:14;;;;;;;107.47;45.77;;;;;;;-9.15;79.52;99553.95;2111871;83;20998;-79
2022/12/14 08:30:16;;;;;;;104.60;44.30;;;;;;;-8.91;79.54;99556.03;2116506;83;20999;-79
2022/12/14 08:33:19;;;;;;;108.27;43.60;;;;;;;-8.65;79.28;99551.62;2118556;83;20982;-78
2022/12/14 08:36:31;;;;;;;105.63;45.27;;;;;;;-8.44;79.10;99537.92;2108441;83;21002;-79
2022/12/14 08:39:41;;;;;;;103.73;46.53;;;;;;;-8.15;79.11;99544.88;2114156;83;21609;-77
2022/12/14 08:42:55;;;;;;;99.03;40.50;;;;;;;-7.93;78.86;99543.53;2114845;83;21383;-79
2022/12/14 08:45:59;;;;;;;106.57;46.80;;;;;;;-7.64;78.74;99542.74;2092293;84;21004;-79
2022/12/14 08:49:12;;;;;;;91.90;37.23;;;;;;;-7.39;78.75;99543.34;2080920;83;21083;-80
2022/12/14 08:52:20;;;;;;;;;;;;;;;-7.15;78.36;99534.12;2079592;83;21011;-83
2022/12/14 08:55:22;;;;;;;106.30;45.47;;;;;;;-7.12;77.69;99533.98;2121116;83;21008;-79
2022/12/14 08:58:32;;;;;;;116.60;50.80;;;;;;;-7.08;77.43;99520.88;2058084;83;21061;-79
2022/12/14 09:01:40;;;;;;;111.60;49.07;;;;;;;-6.95;77.72;99518.59;2092099;84;21014;-80
2022/12/14 09:04:50;;;;;;;123.20;52.27;;;;;;;-7.03;77.52;99516.36;2106732;84;21033;-81
2022/12/14 09:07:56;;;;;;;94.90;41.40;;;;;;;-7.09;77.50;99529.54;2086100;84;21548;-83
2022/12/14 09:11:09;;;;;;;129.07;53.87;;;;;;;-7.18;77.27;99517.05;2099492;83;20982;-81
2022/12/14 09:14:16;;;;;;;115.97;48.77;;;;;;;-7.26;76.98;99520.45;2058311;85;21187;-81
2022/12/14 09:17:37;;;;;;;;;;;;;;;;;;;;;
2022/12/14 09:20:30;;;;;;;117.83;51.13;;;;;;;-7.15;77.44;99514.78;2082348;85;21089;-80
2022/12/14 09:23:38;;;;;;;107.73;51.03;;;;;;;-7.16;77.47;99514.41;2062711;85;21527;-80
2022/12/14 09:26:41;;;;;;;115.40;49.53;;;;;;;-6.93;77.78;99510.77;2084908;84;21029;-80
2022/12/14 09:29:44;;;;;;;114.53;50.17;;;;;;;-6.77;77.70;99503.52;2065139;85;21074;-80
2022/12/14 09:32:47;;;;;;;106.90;48.50;;;;;;;-6.55;77.56;99505.09;2084202;84;21043;-79
2022/12/14 09:35:48;;;;;;;106.22;48.08;;;;;;;-6.44;77.08;99499.42;2064885;85;21600;-77
2022/12/14 09:38:50;;;;;;;102.50;45.63;;;;;;;-6.32;77.15;99489.31;2090182;85;21473;-77
2022/12/14 09:42:38;;;;;;;92.60;41.95;;;;;;;-6.08;77.71;99476.11;2089786;85;21029;-77
2022/12/14 09:45:45;;;;;;;95.22;40.43;;;;;;;-5.88;77.58;99464.27;2106759;84;21066;-80
2022/12/14 09:48:48;;;;;;;105.45;48.65;;;;;;;-5.77;77.35;99460.27;2079920;83;20979;-77
2022/12/14 09:51:51;;;;;;;86.37;39.25;;;;;;;-5.83;77.04;99451.09;2082478;84;21030;-75
2022/12/14 09:54:53;;;;;;;95.83;41.80;;;;;;;-5.86;76.96;99445.65;2082515;84;21504;-76
2022/12/14 09:58:00;;;;;;;84.83;37.28;;;;;;;-5.84;77.33;99435.67;2080383;85;21564;-76
2022/12/14 10:01:23;;;;;;;90.87;43.28;;;;;;;-5.74;77.28;99431.71;2078517;84;21041;-76
2022/12/14 10:04:56;;;;;;;88.92;41.45;;;;;;;-5.52;77.51;99430.95;2077235;85;21038;-74
2022/12/14 10:08:20;;;;;;;86.50;40.25;;;;;;;-4.95;77.88;99429.14;2078294;85;21120;-74
2022/12/14 10:11:50;;;;;;;98.17;45.10;;;;;;;-4.59;77.14;99426.23;2113496;83;21082;-74
2022/12/14 10:15:38;;;;;;;85.75;39.27;;;;;;;-4.48;76.97;99427.36;2115234;83;21504;-74
2022/12/14 10:19:15;;;;;;;76.87;36.75;;;;;;;-4.52;76.56;99406.82;2104669;84;21066;-74
2022/12/14 10:22:22;;;;;;;81.63;37.85;;;;;;;-4.36;76.50;99405.95;2070945;84;21534;-75
2022/12/14 10:25:26;;;;;;;75.22;33.90;;;;;;;-4.32;75.54;99399.18;2114036;83;21022;-75
2022/12/14 10:28:58;;;;;;;80.80;37.38;;;;;;;-4.26;75.85;99396.69;2122316;83;21017;-75
2022/12/14 10:32:21;;;;;;;81.20;35.88;;;;;;;-4.30;75.69;99386.98;2122507;83;21136;-74
2022/12/14 10:35:41;;;;;;;80.95;35.85;;;;;;;-4.22;75.37;99382.65;2123983;83;21108;-74
2022/12/14 10:38:57;;;;;;;74.42;35.63;;;;;;;-4.31;74.80;99374.10;2119002;83;20980;-74
2022/12/14 10:42:22;;;;;;;84.95;36.20;;;;;;;-4.30;75.75;99375.80;2125129;83;21006;-74
2022/12/14 10:45:34;;;;;;;76.97;35.60;;;;;;;-4.20;75.51;99369.12;2120739;83;21411;-74
2022/12/14 10:48:54;;;;;;;79.32;35.28;;;;;;;-4.13;75.46;99361.36;2119489;83;20992;-74
2022/12/14 10:52:21;;;;;;;72.90;35.45;;;;;;;-3.94;75.55;99353.31;2121109;83;21021;-74
2022/12/14 10:55:37;;;;;;;66.07;30.92;;;;;;;-3.78;74.99;99350.59;2119433;83;21036;-75
2022/12/14 10:58:38;;;;;;;69.32;33.83;;;;;;;-3.50;75.59;99351.48;2113997;83;21018;-75
2022/12/14 11:01:40;;;;;;;70.87;34.88;;;;;;;-3.44;73.96;99338.12;2122830;83;21048;-74
2022/12/14 11:05:02;;;;;;;73.83;36.40;;;;;;;-3.41;74.71;99333.59;2108405;83;21613;-74
2022/12/14 11:08:06;;;;;;;71.30;35.95;;;;;;;-3.33;74.71;99324.00;2120741;83;21581;-74
2022/12/14 11:11:17;;;;;;;66.75;31.97;;;;;;;-3.21;74.52;99317.19;2120829;83;21016;-73
2022/12/14 11:14:21;;;;;;;67.50;30.62;;;;;;;-3.18;74.46;99310.06;2125516;82;21096;-74
2022/12/14 11:17:37;;;;;;;67.27;33.55;;;;;;;-3.24;74.24;99297.92;2132163;83;21025;-75
2022/12/14 11:20:58;;;;;;;67.37;32.98;;;;;;;-3.28;74.38;99294.70;2122729;83;21017;-74
2022/12/14 11:24:00;;;;;;;74.42;33.20;;;;;;;-3.24;74.54;99289.70;2124422;83;21040;-74
2022/12/14 11:27:05;;;;;;;71.07;32.88;;;;;;;-3.17;74.18;99284.46;2126820;83;21069;-74
2022/12/14 11:30:15;;;;;;;66.85;31.97;;;;;;;-3.12;73.60;99289.84;2130455;83;21433;-74
2022/12/14 11:33:17;;;;;;;69.63;33.97;;;;;;;-3.08;73.96;99281.73;2088109;83;21581;-74
2022/12/14 11:36:32;;;;;;;67.42;33.30;;;;;;;-3.19;73.73;99259.55;2113199;82;21017;-74
2022/12/14 11:39:39;;;;;;;65.05;31.17;;;;;;;-3.19;73.61;99267.33;2113012;84;21909;-74
2022/12/14 11:42:52;;;;;;;58.92;30.23;;;;;;;-3.15;73.87;99263.61;2103449;84;21073;-76
2022/12/14 11:45:56;;;;;;;61.58;31.52;;;;;;;-3.10;73.79;99254.20;2109374;84;21027;-74
2022/12/14 11:48:57;;;;;;;67.10;30.55;;;;;;;-3.05;73.98;99247.78;2111132;84;21041;-76
2022/12/14 11:52:12;;;;;;;57.80;27.65;;;;;;;-2.89;74.23;99248.91;2113154;83;21021;-75
2022/12/14 11:55:17;;;;;;;61.58;29.65;;;;;;;-2.74;73.53;99237.94;2115227;84;21065;-74
2022/12/14 11:58:26;;;;;;;63.08;30.32;;;;;;;-2.67;73.60;99224.09;2105253;82;21027;-74
2022/12/14 12:01:29;;;;;;;;;;;;;;;-2.53;73.91;99212.29;2086982;84;21176;-75
2022/12/14 12:04:32;;;;;;;59.10;28.98;;;;;;;-2.56;73.05;99216.37;2071199;84;20150;-74
2022/12/14 12:07:41;;;;;;;55.63;27.27;;;;;;;-2.60;73.04;99209.73;2111717;82;21018;-75
2022/12/14 12:10:50;;;;;;;54.90;26.80;;;;;;;-2.66;72.99;99214.06;2080630;84;21073;-75
2022/12/14 12:13:58;;;;;;;55.12;25.30;;;;;;;-2.68;72.45;99209.42;2066778;85;21560;-76
2022/12/14 12:16:59;;;;;;;55.73;26.17;;;;;;;-2.68;71.34;99202.46;2110179;83;20996;-75
2022/12/14 12:20:17;;;;;;;50.70;24.50;;;;;;;-2.64;72.60;99205.70;2115968;83;21586;-76
2022/12/14 12:23:32;;;;;;;49.13;24.00;;;;;;;-2.68;72.26;99198.56;2109794;83;21038;-76
2022/12/14 12:26:56;;;;;;;51.75;24.52;;;;;;;-2.72;72.27;99188.04;2113939;83;21464;-76
2022/12/14 12:30:05;;;;;;;48.78;25.52;;;;;;;-2.74;72.22;99175.63;2111822;83;21086;-76
2022/12/14 12:33:34;;;;;;;49.73;23.10;;;;;;;-2.77;72.15;99159.78;2113110;83;21081;-80
2022/12/14 12:36:38;;;;;;;;;;;;;;;-2.78;72.17;99161.20;2111394;83;21040;-78
2022/12/14 12:39:44;;;;;;;48.83;22.48;;;;;;;-2.76;71.85;99153.67;2114007;83;20200;-81
2022/12/14 12:42:59;;;;;;;47.05;21.95;;;;;;;-2.81;72.01;99148.43;2124526;83;21580;-80
2022/12/14 12:46:06;;;;;;;44.03;20.23;;;;;;;-2.75;72.35;99144.94;2109586;83;21002;-80
2022/12/14 12:49:13;;;;;;;42.40;20.97;;;;;;;-2.75;70.72;99134.55;2109672;83;21066;-80
2022/12/14 12:52:20;;;;;;;42.33;19.32;;;;;;;-2.82;71.54;99129.88;2108649;83;21639;-79
2022/12/14 12:55:24;;;;;;;36.33;18.95;;;;;;;-2.88;71.43;99122.52;2109264;83;21576;-77
2022/12/14 12:58:32;;;;;;;39.50;19.50;;;;;;;-2.90;70.83;99121.78;2114760;83;21399;-79
2022/12/14 13:01:44;;;;;;;39.35;19.12;;;;;;;-2.96;71.34;99109.62;2110513;83;21773;-81
2022/12/14 13:04:50;;;;;;;32.25;15.28;;;;;;;-3.00;71.28;99108.63;2108472;83;21091;-80
2022/12/14 13:07:56;;;;;;;35.43;19.17;;;;;;;-3.01;70.81;99106.97;2085839;83;21082;-80
2022/12/14 13:11:05;;;;;;;42.43;19.05;;;;;;;-3.06;70.77;99113.77;2113064;83;20972;-80
2022/12/14 13:14:31;;;;;;;36.42;18.10;;;;;;;-3.10;70.58;99105.81;2111983;83;21078;-80
2022/12/14 13:17:53;;;;;;;43.02;16.90;;;;;;;-3.13;70.73;99103.90;2111019;83;21046;-80
2022/12/14 13:20:55;;;;;;;38.90;18.07;;;;;;;-3.10;70.52;99102.39;2112758;83;21047;-80
2022/12/14 13:23:58;;;;;;;31.65;15.40;;;;;;;-3.06;70.78;99093.48;2114768;83;21581;-80
2022/12/14 13:27:25;;;;;;;30.77;16.17;;;;;;;-3.07;70.39;99084.02;2109479;83;20964;-81
2022/12/14 13:30:45;;;;;;;30.20;15.68;;;;;;;-3.09;69.86;99082.02;2109228;83;21041;-80
2022/12/14 13:34:21;;;;;;;29.32;15.75;;;;;;;-3.10;70.31;99073.37;2109821;83;21026;-81
2022/12/14 13:38:01;;;;;;;31.70;16.67;;;;;;;-3.07;70.57;99062.80;2111664;83;21579;-80
2022/12/14 13:41:17;;;;;;;35.73;18.60;;;;;;;-3.07;70.31;99062.80;2115079;83;21074;-80
2022/12/14 13:45:04;;;;;;;45.23;22.52;;;;;;;-3.03;70.55;99067.31;2112864;83;21120;-80
2022/12/14 13:48:29;;;;;;;36.50;18.12;;;;;;;-3.03;70.70;99062.94;2114047;83;21118;-81
2022/12/14 13:51:38;;;;;;;38.83;15.93;;;;;;;-3.02;70.56;99058.57;2067130;84;21152;-80
2022/12/14 13:54:39;;;;;;;31.75;15.95;;;;;;;-3.10;69.85;99060.87;2095658;84;21058;-80
2022/12/14 13:57:43;;;;;;;27.00;14.60;;;;;;;-3.14;70.40;99061.55;2073703;85;21424;-80
2022/12/14 14:00:57;;;;;;;37.28;16.90;;;;;;;-3.16;70.25;99064.72;2085722;84;21094;-80
2022/12/14 14:04:20;;;;;;;32.30;16.65;;;;;;;-3.20;70.42;99064.10;2086089;84;21020;-80
2022/12/14 14:07:33;;;;;;;28.95;14.95;;;;;;;-3.20;69.36;99061.52;2086191;83;21084;-80
2022/12/14 14:10:40;;;;;;;33.28;16.27;;;;;;;-3.21;69.91;99058.56;2066413;85;21055;-81
2022/12/14 14:13:52;;;;;;;30.97;16.52;;;;;;;-3.27;69.56;99056.84;2073533;84;21028;-80
2022/12/14 14:17:02;;;;;;;35.85;15.18;;;;;;;-3.29;69.75;99044.46;2079079;84;21061;-80
2022/12/14 14:20:27;;;;;;;33.88;15.98;;;;;;;-3.32;70.06;99043.34;2079033;84;21466;-84
2022/12/14 14:23:32;;;;;;;35.95;15.45;;;;;;;-3.35;69.86;99033.18;2096895;84;21057;-86
2022/12/14 14:26:34;;;;;;;34.83;16.95;;;;;;;-3.37;69.86;99018.21;2072050;83;20985;-80
2022/12/14 14:29:50;;;;;;;34.45;16.90;;;;;;;-3.40;69.98;99023.97;2102289;84;21597;-80
2022/12/14 14:32:54;;;;;;;33.33;16.00;;;;;;;-3.40;70.20;99024.44;2088289;84;21132;-80
2022/12/14 14:36:18;;;;;;;33.30;16.32;;;;;;;-3.39;70.18;99023.49;2073499;84;21552;-80
2022/12/14 14:39:34;;;;;;;34.95;16.60;;;;;;;-3.41;70.16;99008.49;2071472;83;21069;-80
2022/12/14 14:42:53;;;;;;;40.85;18.02;;;;;;;-3.43;70.04;99005.20;2089372;83;21064;-80
2022/12/14 14:46:02;;;;;;;36.50;17.40;;;;;;;-3.47;69.61;99014.10;2092623;83;21131;-77
2022/12/14 14:49:09;;;;;;;37.03;16.75;;;;;;;-3.49;69.98;99001.70;2092932;84;21078;-77